sensor_id;sensor_type;location;lat;lon;timestamp;P1;durP1;ratioP1;P2;durP2;ratioP2
545;SDS011;259;53.304;9.816;2023-11-19T00:00:46;0.90;;;0.90;;
545;SDS011;259;53.304;9.816;2023-11-19T00:03:12;1.20;;;1.10;;
545;SDS011;259;53.304;9.816;2023-11-19T00:05:38;0.93;;;0.93;;
545;SDS011;259;53.304;9.816;2023-11-19T00:08:04;0.80;;;0.80;;
545;SDS011;259;53.304;9.816;2023-11-19T00:10:31;0.80;;;0.80;;
545;SDS011;259;53.304;9.816;2023-11-19T00:12:57;0.80;;;0.80;;
545;SDS011;259;53.304;9.816;2023-11-19T00:15:22;0.80;;;0.80;;
545;SDS011;259;53.304;9.816;2023-11-19T00:17:49;1.10;;;1.00;;
545;SDS011;259;53.304;9.816;2023-11-19T00:20:15;0.80;;;0.80;;
545;SDS011;259;53.304;9.816;2023-11-19T00:22:43;0.60;;;0.60;;
545;SDS011;259;53.304;9.816;2023-11-19T00:25:11;0.70;;;0.70;;
545;SDS011;259;53.304;9.816;2023-11-19T00:27:36;0.80;;;0.80;;
545;SDS011;259;53.304;9.816;2023-11-19T00:30:02;0.70;;;0.70;;
545;SDS011;259;53.304;9.816;2023-11-19T00:32:33;0.70;;;0.70;;
545;SDS011;259;53.304;9.816;2023-11-19T00:34:59;1.00;;;0.97;;
545;SDS011;259;53.304;9.816;2023-11-19T00:37:24;0.80;;;0.80;;
545;SDS011;259;53.304;9.816;2023-11-19T00:39:50;0.97;;;0.97;;
545;SDS011;259;53.304;9.816;2023-11-19T00:42:17;0.93;;;0.93;;
545;SDS011;259;53.304;9.816;2023-11-19T00:44:42;0.90;;;0.90;;
545;SDS011;259;53.304;9.816;2023-11-19T00:47:08;0.80;;;0.80;;
545;SDS011;259;53.304;9.816;2023-11-19T00:49:34;0.80;;;0.80;;
545;SDS011;259;53.304;9.816;2023-11-19T00:52:00;0.93;;;0.90;;
545;SDS011;259;53.304;9.816;2023-11-19T00:54:27;0.77;;;0.60;;
545;SDS011;259;53.304;9.816;2023-11-19T00:56:52;0.60;;;0.60;;
545;SDS011;259;53.304;9.816;2023-11-19T00:59:18;0.70;;;0.70;;
545;SDS011;259;53.304;9.816;2023-11-19T01:01:44;0.90;;;0.90;;
545;SDS011;259;53.304;9.816;2023-11-19T01:04:12;0.80;;;0.77;;
545;SDS011;259;53.304;9.816;2023-11-19T01:06:39;1.17;;;0.80;;
545;SDS011;259;53.304;9.816;2023-11-19T01:09:07;0.77;;;0.77;;
545;SDS011;259;53.304;9.816;2023-11-19T01:11:34;0.80;;;0.80;;
545;SDS011;259;53.304;9.816;2023-11-19T01:14:00;0.77;;;0.77;;
545;SDS011;259;53.304;9.816;2023-11-19T01:16:26;0.77;;;0.77;;
545;SDS011;259;53.304;9.816;2023-11-19T01:18:52;0.77;;;0.67;;
545;SDS011;259;53.304;9.816;2023-11-19T01:21:18;0.60;;;0.60;;
545;SDS011;259;53.304;9.816;2023-11-19T01:23:44;0.97;;;0.80;;
545;SDS011;259;53.304;9.816;2023-11-19T01:26:10;0.87;;;0.87;;
545;SDS011;259;53.304;9.816;2023-11-19T01:28:37;0.60;;;0.60;;
545;SDS011;259;53.304;9.816;2023-11-19T01:31:09;0.70;;;0.70;;
545;SDS011;259;53.304;9.816;2023-11-19T01:33:40;0.70;;;0.70;;
545;SDS011;259;53.304;9.816;2023-11-19T01:36:06;0.87;;;0.50;;
545;SDS011;259;53.304;9.816;2023-11-19T01:38:33;0.60;;;0.60;;
545;SDS011;259;53.304;9.816;2023-11-19T01:41:02;0.80;;;0.80;;
545;SDS011;259;53.304;9.816;2023-11-19T01:43:37;0.70;;;0.70;;
545;SDS011;259;53.304;9.816;2023-11-19T01:46:06;0.67;;;0.67;;
545;SDS011;259;53.304;9.816;2023-11-19T01:48:36;0.60;;;0.60;;
545;SDS011;259;53.304;9.816;2023-11-19T01:51:06;0.60;;;0.60;;
545;SDS011;259;53.304;9.816;2023-11-19T01:53:33;0.60;;;0.50;;
545;SDS011;259;53.304;9.816;2023-11-19T01:56:02;0.50;;;0.50;;
545;SDS011;259;53.304;9.816;2023-11-19T01:58:29;0.87;;;0.63;;
545;SDS011;259;53.304;9.816;2023-11-19T02:00:56;0.90;;;0.90;;
545;SDS011;259;53.304;9.816;2023-11-19T02:03:22;0.60;;;0.60;;
545;SDS011;259;53.304;9.816;2023-11-19T02:05:51;0.57;;;0.50;;
545;SDS011;259;53.304;9.816;2023-11-19T02:08:18;0.50;;;0.50;;
545;SDS011;259;53.304;9.816;2023-11-19T02:10:44;0.70;;;0.63;;
545;SDS011;259;53.304;9.816;2023-11-19T02:13:10;0.70;;;0.60;;
545;SDS011;259;53.304;9.816;2023-11-19T02:15:38;0.60;;;0.60;;
545;SDS011;259;53.304;9.816;2023-11-19T02:18:18;0.60;;;0.50;;
545;SDS011;259;53.304;9.816;2023-11-19T02:20:52;0.60;;;0.50;;
545;SDS011;259;53.304;9.816;2023-11-19T02:23:28;0.70;;;0.60;;
545;SDS011;259;53.304;9.816;2023-11-19T02:28:30;0.50;;;0.40;;
545;SDS011;259;53.304;9.816;2023-11-19T02:30:58;0.77;;;0.77;;
545;SDS011;259;53.304;9.816;2023-11-19T02:33:24;0.77;;;0.50;;
545;SDS011;259;53.304;9.816;2023-11-19T02:35:50;0.60;;;0.60;;
545;SDS011;259;53.304;9.816;2023-11-19T02:38:16;0.73;;;0.50;;
545;SDS011;259;53.304;9.816;2023-11-19T02:40:42;0.53;;;0.50;;
545;SDS011;259;53.304;9.816;2023-11-19T02:43:07;0.60;;;0.50;;
545;SDS011;259;53.304;9.816;2023-11-19T02:45:33;0.77;;;0.50;;
545;SDS011;259;53.304;9.816;2023-11-19T02:47:59;0.60;;;0.53;;
545;SDS011;259;53.304;9.816;2023-11-19T02:50:31;0.50;;;0.40;;
545;SDS011;259;53.304;9.816;2023-11-19T02:52:57;0.60;;;0.50;;
545;SDS011;259;53.304;9.816;2023-11-19T02:55:22;0.80;;;0.60;;
545;SDS011;259;53.304;9.816;2023-11-19T02:57:49;0.90;;;0.90;;
545;SDS011;259;53.304;9.816;2023-11-19T03:00:18;0.60;;;0.50;;
545;SDS011;259;53.304;9.816;2023-11-19T03:02:57;0.63;;;0.60;;
545;SDS011;259;53.304;9.816;2023-11-19T03:05:34;0.50;;;0.50;;
545;SDS011;259;53.304;9.816;2023-11-19T03:08:00;0.80;;;0.60;;
545;SDS011;259;53.304;9.816;2023-11-19T03:10:26;0.53;;;0.50;;
545;SDS011;259;53.304;9.816;2023-11-19T03:12:52;0.60;;;0.53;;
545;SDS011;259;53.304;9.816;2023-11-19T03:15:17;0.50;;;0.50;;
545;SDS011;259;53.304;9.816;2023-11-19T03:17:43;0.87;;;0.50;;
545;SDS011;259;53.304;9.816;2023-11-19T03:20:10;0.60;;;0.50;;
545;SDS011;259;53.304;9.816;2023-11-19T03:22:40;0.60;;;0.50;;
545;SDS011;259;53.304;9.816;2023-11-19T03:25:06;0.60;;;0.53;;
545;SDS011;259;53.304;9.816;2023-11-19T03:27:36;0.60;;;0.60;;
545;SDS011;259;53.304;9.816;2023-11-19T03:30:04;0.50;;;0.47;;
545;SDS011;259;53.304;9.816;2023-11-19T03:32:37;0.67;;;0.67;;
545;SDS011;259;53.304;9.816;2023-11-19T03:35:04;0.60;;;0.53;;
545;SDS011;259;53.304;9.816;2023-11-19T03:37:32;0.60;;;0.50;;
545;SDS011;259;53.304;9.816;2023-11-19T03:39:58;0.70;;;0.63;;
545;SDS011;259;53.304;9.816;2023-11-19T03:42:27;0.60;;;0.50;;
545;SDS011;259;53.304;9.816;2023-11-19T03:44:57;0.57;;;0.50;;
545;SDS011;259;53.304;9.816;2023-11-19T03:47:23;0.70;;;0.70;;
545;SDS011;259;53.304;9.816;2023-11-19T03:49:49;0.57;;;0.57;;
545;SDS011;259;53.304;9.816;2023-11-19T03:52:15;0.60;;;0.50;;
545;SDS011;259;53.304;9.816;2023-11-19T03:54:42;0.60;;;0.60;;
545;SDS011;259;53.304;9.816;2023-11-19T03:57:08;0.60;;;0.40;;
545;SDS011;259;53.304;9.816;2023-11-19T03:59:37;0.60;;;0.60;;
545;SDS011;259;53.304;9.816;2023-11-19T04:02:04;0.70;;;0.60;;
545;SDS011;259;53.304;9.816;2023-11-19T04:04:29;0.60;;;0.50;;
545;SDS011;259;53.304;9.816;2023-11-19T04:06:55;0.60;;;0.50;;
545;SDS011;259;53.304;9.816;2023-11-19T04:09:21;0.70;;;0.60;;
545;SDS011;259;53.304;9.816;2023-11-19T04:11:47;0.60;;;0.50;;
545;SDS011;259;53.304;9.816;2023-11-19T04:14:13;0.60;;;0.53;;
545;SDS011;259;53.304;9.816;2023-11-19T04:16:39;0.70;;;0.70;;
545;SDS011;259;53.304;9.816;2023-11-19T04:19:06;0.70;;;0.67;;
545;SDS011;259;53.304;9.816;2023-11-19T04:21:32;0.60;;;0.50;;
545;SDS011;259;53.304;9.816;2023-11-19T04:23:58;0.60;;;0.60;;
545;SDS011;259;53.304;9.816;2023-11-19T04:26:24;0.70;;;0.70;;
545;SDS011;259;53.304;9.816;2023-11-19T04:28:50;1.00;;;0.90;;
545;SDS011;259;53.304;9.816;2023-11-19T04:31:15;0.70;;;0.70;;
545;SDS011;259;53.304;9.816;2023-11-19T04:33:41;0.60;;;0.60;;
545;SDS011;259;53.304;9.816;2023-11-19T04:36:08;0.60;;;0.60;;
545;SDS011;259;53.304;9.816;2023-11-19T04:38:39;0.70;;;0.70;;
545;SDS011;259;53.304;9.816;2023-11-19T04:41:05;0.80;;;0.80;;
545;SDS011;259;53.304;9.816;2023-11-19T04:43:31;0.70;;;0.70;;
545;SDS011;259;53.304;9.816;2023-11-19T04:45:57;0.67;;;0.60;;
545;SDS011;259;53.304;9.816;2023-11-19T04:48:23;0.70;;;0.60;;
545;SDS011;259;53.304;9.816;2023-11-19T04:50:49;0.73;;;0.73;;
545;SDS011;259;53.304;9.816;2023-11-19T04:53:19;0.80;;;0.70;;
545;SDS011;259;53.304;9.816;2023-11-19T04:55:44;0.70;;;0.70;;
545;SDS011;259;53.304;9.816;2023-11-19T04:58:10;1.03;;;0.93;;
545;SDS011;259;53.304;9.816;2023-11-19T05:00:36;1.27;;;0.80;;
545;SDS011;259;53.304;9.816;2023-11-19T05:03:01;1.10;;;0.90;;
545;SDS011;259;53.304;9.816;2023-11-19T05:05:27;0.80;;;0.80;;
545;SDS011;259;53.304;9.816;2023-11-19T05:07:54;0.70;;;0.70;;
545;SDS011;259;53.304;9.816;2023-11-19T05:10:20;0.80;;;0.80;;
545;SDS011;259;53.304;9.816;2023-11-19T05:12:46;0.80;;;0.80;;
545;SDS011;259;53.304;9.816;2023-11-19T05:15:11;1.00;;;0.80;;
545;SDS011;259;53.304;9.816;2023-11-19T05:17:37;0.80;;;0.70;;
545;SDS011;259;53.304;9.816;2023-11-19T05:20:04;0.80;;;0.80;;
545;SDS011;259;53.304;9.816;2023-11-19T05:22:38;1.17;;;1.00;;
545;SDS011;259;53.304;9.816;2023-11-19T05:25:07;1.13;;;1.03;;
545;SDS011;259;53.304;9.816;2023-11-19T05:27:34;1.20;;;1.20;;
545;SDS011;259;53.304;9.816;2023-11-19T05:30:01;0.90;;;0.80;;
545;SDS011;259;53.304;9.816;2023-11-19T05:32:28;0.60;;;0.60;;
545;SDS011;259;53.304;9.816;2023-11-19T05:34:54;1.23;;;1.10;;
545;SDS011;259;53.304;9.816;2023-11-19T05:37:19;0.70;;;0.70;;
545;SDS011;259;53.304;9.816;2023-11-19T05:39:45;1.00;;;0.77;;
545;SDS011;259;53.304;9.816;2023-11-19T05:42:11;1.10;;;0.90;;
545;SDS011;259;53.304;9.816;2023-11-19T05:44:37;0.80;;;0.80;;
545;SDS011;259;53.304;9.816;2023-11-19T05:47:03;1.10;;;1.00;;
545;SDS011;259;53.304;9.816;2023-11-19T05:49:29;0.90;;;0.90;;
545;SDS011;259;53.304;9.816;2023-11-19T05:51:55;1.50;;;1.37;;
545;SDS011;259;53.304;9.816;2023-11-19T05:54:21;0.90;;;0.90;;
545;SDS011;259;53.304;9.816;2023-11-19T05:56:47;1.33;;;1.07;;
545;SDS011;259;53.304;9.816;2023-11-19T05:59:14;0.70;;;0.70;;
545;SDS011;259;53.304;9.816;2023-11-19T06:01:42;0.90;;;0.90;;
545;SDS011;259;53.304;9.816;2023-11-19T06:04:09;1.17;;;0.97;;
545;SDS011;259;53.304;9.816;2023-11-19T06:06:35;1.23;;;1.13;;
545;SDS011;259;53.304;9.816;2023-11-19T06:09:01;1.10;;;1.00;;
545;SDS011;259;53.304;9.816;2023-11-19T06:11:28;1.60;;;1.20;;
545;SDS011;259;53.304;9.816;2023-11-19T06:13:54;1.10;;;1.10;;
545;SDS011;259;53.304;9.816;2023-11-19T06:16:19;1.30;;;1.20;;
545;SDS011;259;53.304;9.816;2023-11-19T06:18:45;1.00;;;0.90;;
545;SDS011;259;53.304;9.816;2023-11-19T06:21:11;0.93;;;0.80;;
545;SDS011;259;53.304;9.816;2023-11-19T06:23:37;1.20;;;1.10;;
545;SDS011;259;53.304;9.816;2023-11-19T06:26:03;0.90;;;0.80;;
545;SDS011;259;53.304;9.816;2023-11-19T06:28:30;1.23;;;1.23;;
545;SDS011;259;53.304;9.816;2023-11-19T06:30:56;0.93;;;0.87;;
545;SDS011;259;53.304;9.816;2023-11-19T06:33:23;1.17;;;0.90;;
545;SDS011;259;53.304;9.816;2023-11-19T06:35:49;1.37;;;1.27;;
545;SDS011;259;53.304;9.816;2023-11-19T06:38:15;1.37;;;1.27;;
545;SDS011;259;53.304;9.816;2023-11-19T06:40:41;1.10;;;1.00;;
545;SDS011;259;53.304;9.816;2023-11-19T06:43:06;1.20;;;1.10;;
545;SDS011;259;53.304;9.816;2023-11-19T06:45:34;1.30;;;1.20;;
545;SDS011;259;53.304;9.816;2023-11-19T06:48:01;1.20;;;1.10;;
545;SDS011;259;53.304;9.816;2023-11-19T06:50:29;1.47;;;1.30;;
545;SDS011;259;53.304;9.816;2023-11-19T06:52:58;1.10;;;1.10;;
545;SDS011;259;53.304;9.816;2023-11-19T06:55:24;2.07;;;1.20;;
545;SDS011;259;53.304;9.816;2023-11-19T06:57:51;1.07;;;0.97;;
545;SDS011;259;53.304;9.816;2023-11-19T07:00:17;1.40;;;1.30;;
545;SDS011;259;53.304;9.816;2023-11-19T07:02:43;1.30;;;1.10;;
545;SDS011;259;53.304;9.816;2023-11-19T07:05:09;1.27;;;1.17;;
545;SDS011;259;53.304;9.816;2023-11-19T07:07:37;1.83;;;1.10;;
545;SDS011;259;53.304;9.816;2023-11-19T07:10:03;2.03;;;1.20;;
545;SDS011;259;53.304;9.816;2023-11-19T07:12:30;1.10;;;1.00;;
545;SDS011;259;53.304;9.816;2023-11-19T07:14:56;1.10;;;1.10;;
545;SDS011;259;53.304;9.816;2023-11-19T07:17:22;2.90;;;1.40;;
545;SDS011;259;53.304;9.816;2023-11-19T07:19:49;1.57;;;1.20;;
545;SDS011;259;53.304;9.816;2023-11-19T07:22:15;1.30;;;1.20;;
545;SDS011;259;53.304;9.816;2023-11-19T07:24:42;1.13;;;1.00;;
545;SDS011;259;53.304;9.816;2023-11-19T07:27:08;1.30;;;1.20;;
545;SDS011;259;53.304;9.816;2023-11-19T07:29:34;1.30;;;1.20;;
545;SDS011;259;53.304;9.816;2023-11-19T07:32:00;1.37;;;1.27;;
545;SDS011;259;53.304;9.816;2023-11-19T07:34:30;1.40;;;1.20;;
545;SDS011;259;53.304;9.816;2023-11-19T07:36:55;1.60;;;1.40;;
545;SDS011;259;53.304;9.816;2023-11-19T07:39:24;1.97;;;1.30;;
545;SDS011;259;53.304;9.816;2023-11-19T07:41:50;4.17;;;1.20;;
545;SDS011;259;53.304;9.816;2023-11-19T07:44:15;2.90;;;1.30;;
545;SDS011;259;53.304;9.816;2023-11-19T07:46:41;1.70;;;1.37;;
545;SDS011;259;53.304;9.816;2023-11-19T07:49:07;2.30;;;1.70;;
545;SDS011;259;53.304;9.816;2023-11-19T07:51:33;1.37;;;1.27;;
545;SDS011;259;53.304;9.816;2023-11-19T07:53:58;1.23;;;1.00;;
545;SDS011;259;53.304;9.816;2023-11-19T07:56:24;1.20;;;1.10;;
545;SDS011;259;53.304;9.816;2023-11-19T07:58:50;1.20;;;1.10;;
545;SDS011;259;53.304;9.816;2023-11-19T08:01:16;2.53;;;1.20;;
545;SDS011;259;53.304;9.816;2023-11-19T08:03:42;1.20;;;1.10;;
545;SDS011;259;53.304;9.816;2023-11-19T08:06:07;1.43;;;0.90;;
545;SDS011;259;53.304;9.816;2023-11-19T08:08:33;1.30;;;1.20;;
545;SDS011;259;53.304;9.816;2023-11-19T08:11:00;0.97;;;0.93;;
545;SDS011;259;53.304;9.816;2023-11-19T08:13:25;3.33;;;1.47;;
545;SDS011;259;53.304;9.816;2023-11-19T08:15:51;1.50;;;1.23;;
545;SDS011;259;53.304;9.816;2023-11-19T08:18:17;4.60;;;1.53;;
545;SDS011;259;53.304;9.816;2023-11-19T08:20:43;2.97;;;1.50;;
545;SDS011;259;53.304;9.816;2023-11-19T08:23:10;0.87;;;0.87;;
545;SDS011;259;53.304;9.816;2023-11-19T08:25:36;1.47;;;1.37;;
545;SDS011;259;53.304;9.816;2023-11-19T08:28:02;1.80;;;1.20;;
545;SDS011;259;53.304;9.816;2023-11-19T08:30:28;1.33;;;1.13;;
545;SDS011;259;53.304;9.816;2023-11-19T08:32:55;1.63;;;1.20;;
545;SDS011;259;53.304;9.816;2023-11-19T08:35:21;2.03;;;1.20;;
545;SDS011;259;53.304;9.816;2023-11-19T08:37:47;1.70;;;1.23;;
545;SDS011;259;53.304;9.816;2023-11-19T08:40:12;1.27;;;1.17;;
545;SDS011;259;53.304;9.816;2023-11-19T08:42:39;1.23;;;1.13;;
545;SDS011;259;53.304;9.816;2023-11-19T08:45:05;2.10;;;1.10;;
545;SDS011;259;53.304;9.816;2023-11-19T08:47:31;2.80;;;1.10;;
545;SDS011;259;53.304;9.816;2023-11-19T08:49:57;2.30;;;1.90;;
545;SDS011;259;53.304;9.816;2023-11-19T08:52:23;1.73;;;1.50;;
545;SDS011;259;53.304;9.816;2023-11-19T08:54:49;1.60;;;1.50;;
545;SDS011;259;53.304;9.816;2023-11-19T08:57:14;1.40;;;1.30;;
545;SDS011;259;53.304;9.816;2023-11-19T08:59:40;2.13;;;1.30;;
545;SDS011;259;53.304;9.816;2023-11-19T09:02:06;1.40;;;1.30;;
545;SDS011;259;53.304;9.816;2023-11-19T09:04:33;1.83;;;1.10;;
545;SDS011;259;53.304;9.816;2023-11-19T09:06:58;1.20;;;1.10;;
545;SDS011;259;53.304;9.816;2023-11-19T09:09:24;2.40;;;1.23;;
545;SDS011;259;53.304;9.816;2023-11-19T09:11:50;1.57;;;1.47;;
545;SDS011;259;53.304;9.816;2023-11-19T09:14:16;1.20;;;1.10;;
545;SDS011;259;53.304;9.816;2023-11-19T09:16:43;3.00;;;1.30;;
545;SDS011;259;53.304;9.816;2023-11-19T09:19:08;3.63;;;1.20;;
545;SDS011;259;53.304;9.816;2023-11-19T09:21:34;1.60;;;1.50;;
545;SDS011;259;53.304;9.816;2023-11-19T09:24:03;2.40;;;1.67;;
545;SDS011;259;53.304;9.816;2023-11-19T09:26:29;1.87;;;1.60;;
545;SDS011;259;53.304;9.816;2023-11-19T09:28:56;2.37;;;1.53;;
545;SDS011;259;53.304;9.816;2023-11-19T09:31:21;2.13;;;1.67;;
545;SDS011;259;53.304;9.816;2023-11-19T09:33:47;1.60;;;1.50;;
545;SDS011;259;53.304;9.816;2023-11-19T09:36:13;1.50;;;1.37;;
545;SDS011;259;53.304;9.816;2023-11-19T09:38:39;5.37;;;1.70;;
545;SDS011;259;53.304;9.816;2023-11-19T09:41:11;2.70;;;1.67;;
545;SDS011;259;53.304;9.816;2023-11-19T09:43:41;1.50;;;1.20;;
545;SDS011;259;53.304;9.816;2023-11-19T09:46:11;2.97;;;2.13;;
545;SDS011;259;53.304;9.816;2023-11-19T09:48:39;2.47;;;1.30;;
545;SDS011;259;53.304;9.816;2023-11-19T09:51:05;2.07;;;1.73;;
545;SDS011;259;53.304;9.816;2023-11-19T09:53:33;1.97;;;1.50;;
545;SDS011;259;53.304;9.816;2023-11-19T09:56:01;3.30;;;1.50;;
545;SDS011;259;53.304;9.816;2023-11-19T09:58:28;1.40;;;1.10;;
545;SDS011;259;53.304;9.816;2023-11-19T10:00:56;1.83;;;1.30;;
545;SDS011;259;53.304;9.816;2023-11-19T10:03:31;3.70;;;1.30;;
545;SDS011;259;53.304;9.816;2023-11-19T10:06:09;1.83;;;1.20;;
545;SDS011;259;53.304;9.816;2023-11-19T10:08:39;1.77;;;1.60;;
545;SDS011;259;53.304;9.816;2023-11-19T10:11:06;2.13;;;1.30;;
545;SDS011;259;53.304;9.816;2023-11-19T10:13:35;4.13;;;2.27;;
545;SDS011;259;53.304;9.816;2023-11-19T10:16:08;3.67;;;2.10;;
545;SDS011;259;53.304;9.816;2023-11-19T10:18:37;2.13;;;1.67;;
545;SDS011;259;53.304;9.816;2023-11-19T10:21:12;6.17;;;1.80;;
545;SDS011;259;53.304;9.816;2023-11-19T10:23:47;4.40;;;1.70;;
545;SDS011;259;53.304;9.816;2023-11-19T10:26:25;1.87;;;1.57;;
545;SDS011;259;53.304;9.816;2023-11-19T10:28:51;3.97;;;1.77;;
545;SDS011;259;53.304;9.816;2023-11-19T10:31:18;1.87;;;1.40;;
545;SDS011;259;53.304;9.816;2023-11-19T10:33:50;1.90;;;1.57;;
545;SDS011;259;53.304;9.816;2023-11-19T10:36:16;2.63;;;2.00;;
545;SDS011;259;53.304;9.816;2023-11-19T10:38:53;5.53;;;2.70;;
545;SDS011;259;53.304;9.816;2023-11-19T10:41:27;2.20;;;1.63;;
545;SDS011;259;53.304;9.816;2023-11-19T10:43:53;4.30;;;1.90;;
545;SDS011;259;53.304;9.816;2023-11-19T10:46:19;3.07;;;1.43;;
545;SDS011;259;53.304;9.816;2023-11-19T10:48:48;2.37;;;1.50;;
545;SDS011;259;53.304;9.816;2023-11-19T10:51:17;2.30;;;1.40;;
545;SDS011;259;53.304;9.816;2023-11-19T10:53:48;2.57;;;1.47;;
545;SDS011;259;53.304;9.816;2023-11-19T10:56:18;2.93;;;1.37;;
545;SDS011;259;53.304;9.816;2023-11-19T10:58:50;3.43;;;2.10;;
545;SDS011;259;53.304;9.816;2023-11-19T11:01:20;2.77;;;1.50;;
545;SDS011;259;53.304;9.816;2023-11-19T11:03:49;4.27;;;2.03;;
545;SDS011;259;53.304;9.816;2023-11-19T11:06:19;2.83;;;1.87;;
545;SDS011;259;53.304;9.816;2023-11-19T11:08:47;2.80;;;1.43;;
545;SDS011;259;53.304;9.816;2023-11-19T11:11:14;1.97;;;1.77;;
545;SDS011;259;53.304;9.816;2023-11-19T11:13:47;4.63;;;2.10;;
545;SDS011;259;53.304;9.816;2023-11-19T11:16:18;2.50;;;1.77;;
545;SDS011;259;53.304;9.816;2023-11-19T11:18:45;2.27;;;1.20;;
545;SDS011;259;53.304;9.816;2023-11-19T11:21:15;3.00;;;1.77;;
545;SDS011;259;53.304;9.816;2023-11-19T11:26:49;4.00;;;1.80;;
545;SDS011;259;53.304;9.816;2023-11-19T11:33:26;1.57;;;1.23;;
545;SDS011;259;53.304;9.816;2023-11-19T11:38:47;3.33;;;1.93;;
545;SDS011;259;53.304;9.816;2023-11-19T11:41:18;3.60;;;1.83;;
545;SDS011;259;53.304;9.816;2023-11-19T11:43:50;2.83;;;1.47;;
545;SDS011;259;53.304;9.816;2023-11-19T11:49:07;2.03;;;1.60;;
545;SDS011;259;53.304;9.816;2023-11-19T11:54:11;3.00;;;1.63;;
545;SDS011;259;53.304;9.816;2023-11-19T11:56:43;3.37;;;1.90;;
545;SDS011;259;53.304;9.816;2023-11-19T12:02:10;4.70;;;2.10;;
545;SDS011;259;53.304;9.816;2023-11-19T12:04:39;2.40;;;1.50;;
545;SDS011;259;53.304;9.816;2023-11-19T12:07:06;2.50;;;1.63;;
545;SDS011;259;53.304;9.816;2023-11-19T12:09:39;2.60;;;1.93;;
545;SDS011;259;53.304;9.816;2023-11-19T12:12:07;3.60;;;2.10;;
545;SDS011;259;53.304;9.816;2023-11-19T12:19:59;2.30;;;1.70;;
545;SDS011;259;53.304;9.816;2023-11-19T12:22:26;1.47;;;1.20;;
545;SDS011;259;53.304;9.816;2023-11-19T12:24:55;1.90;;;1.63;;
545;SDS011;259;53.304;9.816;2023-11-19T12:27:21;2.87;;;1.80;;
545;SDS011;259;53.304;9.816;2023-11-19T12:29:47;1.87;;;1.57;;
545;SDS011;259;53.304;9.816;2023-11-19T12:32:13;2.83;;;1.60;;
545;SDS011;259;53.304;9.816;2023-11-19T12:34:39;4.53;;;1.90;;
545;SDS011;259;53.304;9.816;2023-11-19T12:37:05;4.50;;;1.77;;
545;SDS011;259;53.304;9.816;2023-11-19T12:39:31;2.80;;;1.60;;
545;SDS011;259;53.304;9.816;2023-11-19T12:41:57;2.57;;;1.60;;
545;SDS011;259;53.304;9.816;2023-11-19T12:44:26;3.30;;;1.90;;
545;SDS011;259;53.304;9.816;2023-11-19T12:47:01;1.70;;;1.50;;
545;SDS011;259;53.304;9.816;2023-11-19T12:49:32;1.80;;;1.43;;
545;SDS011;259;53.304;9.816;2023-11-19T12:51:59;2.50;;;1.50;;
545;SDS011;259;53.304;9.816;2023-11-19T12:54:31;2.30;;;1.73;;
545;SDS011;259;53.304;9.816;2023-11-19T12:56:58;4.10;;;1.77;;
545;SDS011;259;53.304;9.816;2023-11-19T12:59:24;3.10;;;1.50;;
545;SDS011;259;53.304;9.816;2023-11-19T13:01:55;2.83;;;1.47;;
545;SDS011;259;53.304;9.816;2023-11-19T13:04:27;2.53;;;1.67;;
545;SDS011;259;53.304;9.816;2023-11-19T13:06:57;2.53;;;1.40;;
545;SDS011;259;53.304;9.816;2023-11-19T13:09:29;3.40;;;1.47;;
545;SDS011;259;53.304;9.816;2023-11-19T13:11:55;1.63;;;1.00;;
545;SDS011;259;53.304;9.816;2023-11-19T13:14:21;2.77;;;1.70;;
545;SDS011;259;53.304;9.816;2023-11-19T13:16:48;2.83;;;1.60;;
545;SDS011;259;53.304;9.816;2023-11-19T13:19:15;2.40;;;1.43;;
545;SDS011;259;53.304;9.816;2023-11-19T13:21:41;2.20;;;1.67;;
545;SDS011;259;53.304;9.816;2023-11-19T13:24:07;2.50;;;1.50;;
545;SDS011;259;53.304;9.816;2023-11-19T13:26:33;2.87;;;1.73;;
545;SDS011;259;53.304;9.816;2023-11-19T13:28:59;2.30;;;1.77;;
545;SDS011;259;53.304;9.816;2023-11-19T13:31:25;2.57;;;1.80;;
545;SDS011;259;53.304;9.816;2023-11-19T13:33:51;1.47;;;1.30;;
545;SDS011;259;53.304;9.816;2023-11-19T13:36:17;1.60;;;1.30;;
545;SDS011;259;53.304;9.816;2023-11-19T13:38:42;3.63;;;1.47;;
545;SDS011;259;53.304;9.816;2023-11-19T13:41:11;1.80;;;1.57;;
545;SDS011;259;53.304;9.816;2023-11-19T13:43:38;4.40;;;1.57;;
545;SDS011;259;53.304;9.816;2023-11-19T13:46:04;2.10;;;1.10;;
545;SDS011;259;53.304;9.816;2023-11-19T13:48:30;1.80;;;1.53;;
545;SDS011;259;53.304;9.816;2023-11-19T13:50:57;1.70;;;1.10;;
545;SDS011;259;53.304;9.816;2023-11-19T13:53:23;2.60;;;1.80;;
545;SDS011;259;53.304;9.816;2023-11-19T13:55:49;2.93;;;1.50;;
545;SDS011;259;53.304;9.816;2023-11-19T13:58:15;3.00;;;1.40;;
545;SDS011;259;53.304;9.816;2023-11-19T14:00:41;1.80;;;1.70;;
545;SDS011;259;53.304;9.816;2023-11-19T14:03:07;2.37;;;1.33;;
545;SDS011;259;53.304;9.816;2023-11-19T14:05:34;2.23;;;1.40;;
545;SDS011;259;53.304;9.816;2023-11-19T14:08:00;2.20;;;2.00;;
545;SDS011;259;53.304;9.816;2023-11-19T14:10:26;2.37;;;1.43;;
545;SDS011;259;53.304;9.816;2023-11-19T14:12:52;3.10;;;1.73;;
545;SDS011;259;53.304;9.816;2023-11-19T14:15:17;2.17;;;1.33;;
545;SDS011;259;53.304;9.816;2023-11-19T14:17:43;1.73;;;1.40;;
545;SDS011;259;53.304;9.816;2023-11-19T14:20:09;3.80;;;1.77;;
545;SDS011;259;53.304;9.816;2023-11-19T14:22:39;1.80;;;1.50;;
545;SDS011;259;53.304;9.816;2023-11-19T14:25:05;2.90;;;1.60;;
545;SDS011;259;53.304;9.816;2023-11-19T14:27:35;2.77;;;1.30;;
545;SDS011;259;53.304;9.816;2023-11-19T14:30:08;2.20;;;1.30;;
545;SDS011;259;53.304;9.816;2023-11-19T14:32:36;2.87;;;1.70;;
545;SDS011;259;53.304;9.816;2023-11-19T14:35:03;2.90;;;1.50;;
545;SDS011;259;53.304;9.816;2023-11-19T14:37:30;1.80;;;1.30;;
545;SDS011;259;53.304;9.816;2023-11-19T14:39:58;1.67;;;1.30;;
545;SDS011;259;53.304;9.816;2023-11-19T14:42:24;3.03;;;1.67;;
545;SDS011;259;53.304;9.816;2023-11-19T14:44:50;2.10;;;1.50;;
545;SDS011;259;53.304;9.816;2023-11-19T14:47:20;2.53;;;1.40;;
545;SDS011;259;53.304;9.816;2023-11-19T14:49:46;2.73;;;1.50;;
545;SDS011;259;53.304;9.816;2023-11-19T14:52:12;2.30;;;1.47;;
545;SDS011;259;53.304;9.816;2023-11-19T14:54:38;2.77;;;1.53;;
545;SDS011;259;53.304;9.816;2023-11-19T14:57:04;1.67;;;1.40;;
545;SDS011;259;53.304;9.816;2023-11-19T14:59:33;2.00;;;1.20;;
545;SDS011;259;53.304;9.816;2023-11-19T15:01:59;2.10;;;1.60;;
545;SDS011;259;53.304;9.816;2023-11-19T15:04:26;2.60;;;1.90;;
545;SDS011;259;53.304;9.816;2023-11-19T15:06:52;1.83;;;1.20;;
545;SDS011;259;53.304;9.816;2023-11-19T15:09:18;2.20;;;1.33;;
545;SDS011;259;53.304;9.816;2023-11-19T15:11:46;2.03;;;1.83;;
545;SDS011;259;53.304;9.816;2023-11-19T15:14:15;3.13;;;1.53;;
545;SDS011;259;53.304;9.816;2023-11-19T15:16:43;4.23;;;1.60;;
545;SDS011;259;53.304;9.816;2023-11-19T15:19:10;1.83;;;1.50;;
545;SDS011;259;53.304;9.816;2023-11-19T15:21:37;3.30;;;2.03;;
545;SDS011;259;53.304;9.816;2023-11-19T15:24:04;2.00;;;1.30;;
545;SDS011;259;53.304;9.816;2023-11-19T15:26:33;1.63;;;1.10;;
545;SDS011;259;53.304;9.816;2023-11-19T15:29:00;1.93;;;1.20;;
545;SDS011;259;53.304;9.816;2023-11-19T15:31:26;3.03;;;1.50;;
545;SDS011;259;53.304;9.816;2023-11-19T15:33:52;2.20;;;1.23;;
545;SDS011;259;53.304;9.816;2023-11-19T15:36:18;1.87;;;1.10;;
545;SDS011;259;53.304;9.816;2023-11-19T15:38:43;3.13;;;1.23;;
545;SDS011;259;53.304;9.816;2023-11-19T15:41:09;3.73;;;1.53;;
545;SDS011;259;53.304;9.816;2023-11-19T15:43:35;1.80;;;1.10;;
545;SDS011;259;53.304;9.816;2023-11-19T15:46:01;3.63;;;1.27;;
545;SDS011;259;53.304;9.816;2023-11-19T15:48:32;2.20;;;1.10;;
545;SDS011;259;53.304;9.816;2023-11-19T15:50:58;1.93;;;1.53;;
545;SDS011;259;53.304;9.816;2023-11-19T15:53:23;1.43;;;1.20;;
545;SDS011;259;53.304;9.816;2023-11-19T15:55:49;2.20;;;1.17;;
545;SDS011;259;53.304;9.816;2023-11-19T15:58:17;1.93;;;1.40;;
545;SDS011;259;53.304;9.816;2023-11-19T16:00:44;1.97;;;1.13;;
545;SDS011;259;53.304;9.816;2023-11-19T16:03:12;2.50;;;1.47;;
545;SDS011;259;53.304;9.816;2023-11-19T16:05:38;1.93;;;1.17;;
545;SDS011;259;53.304;9.816;2023-11-19T16:08:04;2.00;;;1.20;;
545;SDS011;259;53.304;9.816;2023-11-19T16:10:30;2.93;;;2.10;;